Time;durP1;ratioP1;P1;durP2;ratioP2;P2;SDS_P1;SDS_P2;PMS_P1;PMS_P2;Temp;Humidity;BMP_temperature;BMP_pressure;BME280_temperature;BME280_humidity;BME280_pressure;Samples;Min_cycle;Max_cycle;Signal;HPM_P1;HPM_P2
2023/07/21 00:01:09;;;;;;;8.73;2.85;;;14.20;99.90;;;;;;5024988;28;20068;-89
2023/07/21 00:03:35;;;;;;;7.32;2.55;;;14.10;99.90;;;;;;5027074;28;20052;-89
2023/07/21 00:06:06;;;;;;;6.57;2.33;;;14.10;99.90;;;;;;5011580;28;20398;-88
2023/07/21 00:08:32;;;;;;;7.80;2.80;;;14.10;99.90;;;;;;4996100;28;20764;-89
2023/07/21 00:10:58;;;;;;;7.68;2.75;;;14.10;99.90;;;;;;5039774;28;20044;-90
2023/07/21 00:13:25;;;;;;;8.80;3.00;;;14.10;99.90;;;;;;5024354;28;20043;-89
2023/07/21 00:15:52;;;;;;;6.65;2.60;;;14.00;99.90;;;;;;5009933;28;20080;-89
2023/07/21 00:18:19;;;;;;;8.73;2.70;;;14.00;99.90;;;;;;5027838;28;20123;-89
2023/07/21 00:20:45;;;;;;;8.98;2.92;;;14.00;99.90;;;;;;5023334;28;20041;-89
2023/07/21 00:23:12;;;;;;;8.63;2.95;;;14.00;99.90;;;;;;5007338;28;20040;-89
2023/07/21 00:25:39;;;;;;;8.02;3.03;;;14.00;99.90;;;;;;5025431;28;20052;-90
2023/07/21 00:28:05;;;;;;;8.70;3.28;;;13.90;99.90;;;;;;5010632;28;20405;-89
2023/07/21 00:30:31;;;;;;;11.55;3.35;;;13.90;99.90;;;;;;5022038;28;20044;-89
2023/07/21 00:32:57;;;;;;;7.60;2.83;;;13.90;99.90;;;;;;5004175;28;20154;-88
2023/07/21 00:35:23;;;;;;;8.98;3.22;;;13.90;99.90;;;;;;5006724;28;20033;-89
2023/07/21 00:37:49;;;;;;;9.05;3.00;;;14.00;99.90;;;;;;5016719;28;20036;-89
2023/07/21 00:40:20;;;;;;;8.95;3.40;;;14.00;99.90;;;;;;5008639;28;20122;-89
2023/07/21 00:42:46;;;;;;;8.65;3.38;;;14.00;99.90;;;;;;5020783;28;20041;-89
2023/07/21 00:45:14;;;;;;;9.55;2.92;;;14.00;99.90;;;;;;5007732;28;20434;-89
2023/07/21 00:47:41;;;;;;;8.57;3.47;;;13.90;99.90;;;;;;5026858;28;20056;-89
2023/07/21 00:50:08;;;;;;;10.02;3.55;;;13.80;99.90;;;;;;5011429;28;20082;-89
2023/07/21 00:52:34;;;;;;;8.85;3.30;;;13.80;99.90;;;;;;5039593;28;20493;-89
2023/07/21 00:55:01;;;;;;;8.57;3.38;;;13.70;99.90;;;;;;5030142;28;20723;-90
2023/07/21 00:57:27;;;;;;;8.65;3.63;;;13.80;99.90;;;;;;4993702;28;20507;-89
2023/07/21 00:59:53;;;;;;;8.20;3.00;;;13.70;99.90;;;;;;5042437;28;20044;-89
2023/07/21 01:02:19;;;;;;;10.30;3.67;;;13.70;99.90;;;;;;5006355;28;20049;-89
2023/07/21 01:04:45;;;;;;;9.70;3.65;;;13.70;99.90;;;;;;5041562;28;20044;-89
2023/07/21 01:07:11;;;;;;;9.45;3.78;;;13.70;99.90;;;;;;5045876;28;20028;-90
2023/07/21 01:09:39;;;;;;;9.15;3.70;;;13.70;99.90;;;;;;5027660;28;20033;-89
2023/07/21 01:12:06;;;;;;;8.35;3.53;;;13.70;99.90;;;;;;5011588;28;20255;-90
2023/07/21 01:14:36;;;;;;;8.82;3.70;;;13.70;99.90;;;;;;5027960;28;20033;-89
2023/07/21 01:17:03;;;;;;;10.40;3.60;;;13.70;99.90;;;;;;5024708;28;20554;-89
2023/07/21 01:19:30;;;;;;;11.80;3.72;;;13.80;99.90;;;;;;5013636;28;20314;-90
2023/07/21 01:22:20;;;;;;;9.52;4.15;;;13.80;99.90;;;;;;5029653;28;20781;-90
2023/07/21 01:24:49;;;;;;;8.90;4.18;;;13.80;99.90;;;;;;5028334;28;20041;-90
2023/07/21 01:27:20;;;;;;;9.55;4.20;;;13.80;99.90;;;;;;5037829;28;20036;-89
2023/07/21 01:29:46;;;;;;;10.38;4.03;;;13.80;99.90;;;;;;5028366;28;20123;-89
2023/07/21 01:32:15;;;;;;;10.88;4.40;;;13.80;99.90;;;;;;5030543;28;20048;-89
2023/07/21 01:34:42;;;;;;;9.98;4.00;;;13.80;99.90;;;;;;5013147;28;20048;-89
2023/07/21 01:37:08;;;;;;;9.77;4.18;;;13.70;99.90;;;;;;4992683;28;20041;-89
2023/07/21 01:39:38;;;;;;;9.88;4.45;;;13.70;99.90;;;;;;5025441;28;20041;-89
2023/07/21 01:42:05;;;;;;;10.07;3.92;;;13.80;99.90;;;;;;5007683;28;20148;-89
2023/07/21 01:44:31;;;;;;;8.77;4.13;;;13.80;99.90;;;;;;4992299;28;20098;-89
2023/07/21 01:46:57;;;;;;;10.45;3.95;;;13.80;99.90;;;;;;5028072;28;20041;-89
2023/07/21 01:49:23;;;;;;;10.27;4.18;;;13.80;99.90;;;;;;5025345;28;20033;-90
2023/07/21 01:51:52;;;;;;;9.73;4.50;;;13.70;99.90;;;;;;5041735;28;20045;-89
2023/07/21 01:54:29;;;;;;;10.13;4.35;;;13.70;99.90;;;;;;5023732;28;20056;-89
2023/07/21 01:57:05;;;;;;;9.07;3.65;;;13.70;99.90;;;;;;5022432;28;20048;-89
2023/07/21 01:59:31;;;;;;;8.63;3.75;;;13.70;99.90;;;;;;5045101;28;20048;-89
2023/07/21 02:01:57;;;;;;;9.85;3.80;;;13.70;99.90;;;;;;5028095;28;20049;-89
2023/07/21 02:04:23;;;;;;;10.30;3.72;;;13.70;99.90;;;;;;5016742;28;20069;-89
2023/07/21 02:06:50;;;;;;;8.00;3.47;;;13.70;99.90;;;;;;5027775;28;20076;-90
2023/07/21 02:09:15;;;;;;;7.82;3.35;;;13.70;99.90;;;;;;5043482;28;20091;-89
2023/07/21 02:11:45;;;;;;;9.27;3.83;;;13.70;99.90;;;;;;4996535;28;20041;-89
2023/07/21 02:14:11;;;;;;;9.43;3.70;;;13.70;99.90;;;;;;5029699;28;20091;-90
2023/07/21 02:16:40;;;;;;;9.98;3.80;;;13.70;99.90;;;;;;5011286;28;20437;-90
2023/07/21 02:19:06;;;;;;;9.93;3.83;;;13.70;99.90;;;;;;5009930;28;20078;-90
2023/07/21 02:21:35;;;;;;;9.40;3.72;;;13.60;99.90;;;;;;5008163;28;20583;-89
2023/07/21 02:24:00;;;;;;;10.57;3.75;;;13.60;99.90;;;;;;5046246;28;20040;-90
2023/07/21 02:26:27;;;;;;;8.50;3.45;;;13.60;99.90;;;;;;5026679;28;20037;-89
2023/07/21 02:28:52;;;;;;;9.80;3.33;;;13.50;99.90;;;;;;5041404;28;20142;-88
2023/07/21 02:31:21;;;;;;;9.27;3.83;;;13.50;99.90;;;;;;5043910;28;20041;-89
2023/07/21 02:33:47;;;;;;;9.07;3.47;;;13.50;99.90;;;;;;4993568;28;20171;-89
2023/07/21 02:36:13;;;;;;;9.88;3.92;;;13.50;99.90;;;;;;5024564;28;20490;-89
2023/07/21 02:38:39;;;;;;;9.90;3.67;;;13.50;99.90;;;;;;5012233;28;20068;-89
2023/07/21 02:41:08;;;;;;;10.70;3.63;;;13.50;99.90;;;;;;5009984;28;20076;-89
2023/07/21 02:43:34;;;;;;;7.53;3.22;;;13.40;99.90;;;;;;5027850;28;20057;-89
2023/07/21 02:46:00;;;;;;;8.60;3.60;;;13.40;99.90;;;;;;5044964;28;20047;-89
2023/07/21 02:48:25;;;;;;;10.10;3.83;;;13.40;99.90;;;;;;5040951;28;20041;-89
2023/07/21 02:50:55;;;;;;;7.85;2.95;;;13.40;99.90;;;;;;5005089;28;20044;-89
2023/07/21 02:53:21;;;;;;;9.70;3.30;;;13.40;99.90;;;;;;5015950;28;20044;-89
2023/07/21 02:55:47;;;;;;;9.48;3.25;;;13.40;99.90;;;;;;5025070;28;20032;-89
2023/07/21 02:58:15;;;;;;;8.18;3.47;;;13.40;99.90;;;;;;5043164;28;20035;-89
2023/07/21 03:00:41;;;;;;;8.75;3.10;;;13.30;99.90;;;;;;5044003;28;20044;-89
2023/07/21 03:03:12;;;;;;;7.70;2.95;;;13.30;99.90;;;;;;5024375;28;20440;-89
2023/07/21 03:05:38;;;;;;;7.97;3.08;;;13.30;99.90;;;;;;5026650;28;20034;-89
2023/07/21 03:08:04;;;;;;;9.00;3.20;;;13.20;99.90;;;;;;5024911;28;20036;-88
2023/07/21 03:10:30;;;;;;;8.55;3.25;;;13.20;99.90;;;;;;5040992;28;20051;-89
2023/07/21 03:12:56;;;;;;;8.32;3.08;;;13.10;99.90;;;;;;5012186;28;20037;-88
2023/07/21 03:15:21;;;;;;;8.55;3.10;;;13.10;99.90;;;;;;4994891;28;20128;-89
2023/07/21 03:17:47;;;;;;;8.82;3.40;;;13.10;99.90;;;;;;5006923;28;20128;-89
2023/07/21 03:20:14;;;;;;;8.35;3.05;;;13.10;99.90;;;;;;5026619;28;20146;-89
2023/07/21 03:22:44;;;;;;;10.00;3.63;;;13.10;99.90;;;;;;4988169;28;20033;-90
2023/07/21 03:25:11;;;;;;;9.45;3.28;;;13.10;99.90;;;;;;5042641;28;21854;-89
2023/07/21 03:27:40;;;;;;;10.50;3.67;;;13.10;99.90;;;;;;5043982;28;20068;-89
2023/07/21 03:30:09;;;;;;;8.98;3.80;;;13.10;99.90;;;;;;5026679;28;20468;-89
2023/07/21 03:32:36;;;;;;;8.48;3.47;;;13.10;99.90;;;;;;5006279;28;20037;-89
2023/07/21 03:35:04;;;;;;;9.50;4.03;;;13.10;99.90;;;;;;5011815;28;20508;-89
2023/07/21 03:37:31;;;;;;;9.52;3.75;;;13.10;99.90;;;;;;5008126;28;20103;-89
2023/07/21 03:39:57;;;;;;;9.82;4.35;;;13.10;99.90;;;;;;5019834;28;20045;-89
2023/07/21 03:42:23;;;;;;;8.48;3.92;;;13.10;99.90;;;;;;5008003;28;20037;-89
2023/07/21 03:44:50;;;;;;;9.18;4.10;;;13.10;99.90;;;;;;5011923;28;20036;-89
2023/07/21 03:47:19;;;;;;;11.27;5.45;;;13.20;99.90;;;;;;5040150;28;20051;-88
2023/07/21 03:49:46;;;;;;;11.07;5.40;;;13.20;99.90;;;;;;5039022;28;20592;-89
2023/07/21 03:52:15;;;;;;;11.93;6.85;;;13.20;99.90;;;;;;5014692;28;20128;-89
2023/07/21 03:54:41;;;;;;;13.45;7.18;;;13.10;99.90;;;;;;4999383;28;21010;-88
2023/07/21 03:57:06;;;;;;;12.80;6.40;;;13.20;99.90;;;;;;4988171;28;20044;-89
2023/07/21 03:59:32;;;;;;;11.68;6.63;;;13.20;99.90;;;;;;5042826;28;20124;-89
2023/07/21 04:01:58;;;;;;;12.40;5.85;;;13.20;99.90;;;;;;5023943;28;20040;-89
2023/07/21 04:04:24;;;;;;;13.02;6.45;;;13.20;99.90;;;;;;5009463;28;20045;-88
2023/07/21 04:06:49;;;;;;;11.45;6.15;;;13.20;99.90;;;;;;4990642;28;20815;-89
2023/07/21 04:09:15;;;;;;;12.02;6.28;;;13.20;99.90;;;;;;5018369;28;20544;-89
2023/07/21 04:11:42;;;;;;;11.23;5.97;;;13.20;99.90;;;;;;5026781;28;20033;-89
2023/07/21 04:14:07;;;;;;;11.38;5.97;;;13.20;99.90;;;;;;5014282;28;20090;-89
2023/07/21 04:16:34;;;;;;;9.88;4.03;;;13.30;99.90;;;;;;5031135;28;20041;-89
2023/07/21 04:19:00;;;;;;;9.30;4.38;;;13.30;99.90;;;;;;5041284;28;20040;-89
2023/07/21 04:21:26;;;;;;;9.68;4.47;;;13.30;99.90;;;;;;5030386;28;20151;-89
2023/07/21 04:23:52;;;;;;;9.70;4.40;;;13.40;99.90;;;;;;4995423;28;20529;-90
2023/07/21 04:26:18;;;;;;;11.00;4.30;;;13.40;99.90;;;;;;5013432;28;20037;-88
2023/07/21 04:28:47;;;;;;;13.13;4.57;;;13.50;99.90;;;;;;5030130;28;20087;-89
2023/07/21 04:31:13;;;;;;;9.40;4.35;;;13.50;99.90;;;;;;4999502;28;20124;-89
2023/07/21 04:33:39;;;;;;;10.32;4.60;;;13.50;99.90;;;;;;5026725;28;20033;-89
2023/07/21 04:36:06;;;;;;;12.07;4.75;;;13.50;99.90;;;;;;5009768;28;20247;-89
2023/07/21 04:38:32;;;;;;;10.43;4.15;;;13.60;99.90;;;;;;5025353;28;20541;-89
2023/07/21 04:40:58;;;;;;;9.60;4.13;;;13.60;99.90;;;;;;5010727;28;20360;-88
2023/07/21 04:43:24;;;;;;;10.35;4.35;;;14.20;99.90;;;;;;5029857;28;20040;-89
2023/07/21 04:45:50;;;;;;;9.02;4.22;;;13.60;99.90;;;;;;5010426;28;20029;-89
2023/07/21 04:48:16;;;;;;;9.43;4.05;;;13.60;99.90;;;;;;5043143;28;20045;-88
2023/07/21 04:50:42;;;;;;;9.80;4.70;;;13.70;99.90;;;;;;5040849;28;20044;-89
2023/07/21 04:53:11;;;;;;;10.60;4.50;;;13.70;99.90;;;;;;5018085;28;20596;-89
2023/07/21 04:55:38;;;;;;;10.38;4.60;;;13.80;99.90;;;;;;5003399;28;20041;-89
2023/07/21 04:58:10;;;;;;;10.45;5.30;;;13.80;99.90;;;;;;5010982;28;20498;-89
2023/07/21 05:00:36;;;;;;;11.52;5.30;;;13.90;99.90;;;;;;5008348;28;20295;-88
2023/07/21 05:03:02;;;;;;;11.27;5.57;;;13.90;99.90;;;;;;5026069;28;20195;-88
2023/07/21 05:05:28;;;;;;;9.40;5.03;;;14.00;99.90;;;;;;4994594;28;20033;-88
2023/07/21 05:07:54;;;;;;;10.90;5.32;;;14.10;99.90;;;;;;5023180;28;20509;-89
2023/07/21 05:10:20;;;;;;;10.20;4.35;;;14.20;99.90;;;;;;5045757;28;20033;-89
2023/07/21 05:12:46;;;;;;;12.18;4.07;;;14.20;99.90;;;;;;5001894;28;20063;-89
2023/07/21 05:15:13;;;;;;;9.43;3.88;;;14.40;99.90;;;;;;5014100;28;20123;-89
2023/07/21 05:17:40;;;;;;;11.43;4.15;;;14.40;99.90;;;;;;5023877;28;20052;-88
2023/07/21 05:20:11;;;;;;;10.90;4.25;;;14.50;99.90;;;;;;5032588;28;20037;-89
2023/07/21 05:22:37;;;;;;;9.80;3.97;;;14.60;99.90;;;;;;5030636;28;20383;-89
2023/07/21 05:25:06;;;;;;;9.23;3.72;;;14.80;99.90;;;;;;5029814;28;20037;-88
2023/07/21 05:27:32;;;;;;;9.30;3.60;;;14.80;99.90;;;;;;5035844;28;20032;-89
2023/07/21 05:30:00;;;;;;;10.10;3.72;;;15.00;99.90;;;;;;5027139;28;20059;-89
2023/07/21 05:32:26;;;;;;;10.25;3.63;;;15.00;99.90;;;;;;4995489;28;20599;-89
2023/07/21 05:34:51;;;;;;;8.70;3.53;;;15.10;99.90;;;;;;5027499;28;20140;-89
2023/07/21 05:37:17;;;;;;;11.35;3.80;;;15.20;99.90;;;;;;5038349;28;20041;-89
2023/07/21 05:39:43;;;;;;;8.98;3.28;;;15.20;99.90;;;;;;5001654;28;20127;-89
2023/07/21 05:42:08;;;;;;;11.50;3.70;;;15.20;99.90;;;;;;5033906;28;20040;-88
2023/07/21 05:44:34;;;;;;;10.23;3.55;;;15.30;99.90;;;;;;5015394;28;20118;-89
2023/07/21 05:47:01;;;;;;;9.25;3.30;;;15.40;99.90;;;;;;5017496;28;20189;-89
2023/07/21 05:49:27;;;;;;;8.52;2.75;;;15.40;99.90;;;;;;5045705;28;20124;-89
2023/07/21 05:51:53;;;;;;;8.48;3.47;;;15.40;99.90;;;;;;5031854;28;20579;-89
2023/07/21 05:54:19;;;;;;;10.15;2.97;;;15.50;99.90;;;;;;5015834;28;20045;-89
2023/07/21 05:56:44;;;;;;;9.38;2.75;;;15.60;99.90;;;;;;5048231;28;20047;-89
2023/07/21 05:59:11;;;;;;;8.95;2.80;;;15.70;99.90;;;;;;5000909;28;20041;-89
2023/07/21 06:01:37;;;;;;;8.40;2.60;;;15.80;99.90;;;;;;5033539;28;20080;-89
2023/07/21 06:04:04;;;;;;;8.52;2.67;;;15.80;99.90;;;;;;4998843;28;20045;-89
2023/07/21 06:06:31;;;;;;;10.05;2.70;;;15.90;99.90;;;;;;5013262;28;20047;-89
2023/07/21 06:08:57;;;;;;;9.25;2.70;;;16.10;99.90;;;;;;5016151;28;20076;-89
2023/07/21 06:11:23;;;;;;;7.35;2.65;;;16.20;99.90;;;;;;5032376;28;20072;-90
2023/07/21 06:13:49;;;;;;;7.13;2.58;;;16.30;99.90;;;;;;4988121;28;20458;-89
2023/07/21 06:16:17;;;;;;;9.52;2.72;;;16.40;99.90;;;;;;5001621;28;20125;-94
2023/07/21 06:18:43;;;;;;;8.50;2.60;;;16.60;99.90;;;;;;4993117;28;20036;-89
2023/07/21 06:21:12;;;;;;;7.50;2.50;;;16.70;99.90;;;;;;5044810;28;20045;-89
2023/07/21 06:23:38;;;;;;;13.18;2.72;;;16.80;99.90;;;;;;5026603;28;20037;-89
2023/07/21 06:26:04;;;;;;;12.43;2.95;;;16.90;99.90;;;;;;5044835;28;20032;-89
2023/07/21 06:28:30;;;;;;;9.43;2.92;;;16.90;99.90;;;;;;5017931;28;20393;-91
2023/07/21 06:30:56;;;;;;;12.68;2.60;;;17.00;99.90;;;;;;4995940;28;20039;-91
2023/07/21 06:33:22;;;;;;;12.00;2.67;;;17.10;99.90;;;;;;4994530;28;20424;-90
2023/07/21 06:35:50;;;;;;;10.38;2.72;;;17.20;99.90;;;;;;5009637;28;20091;-90
2023/07/21 06:38:16;;;;;;;10.38;2.80;;;17.20;99.90;;;;;;5021446;28;20328;-90
2023/07/21 06:40:41;;;;;;;8.98;2.45;;;17.30;99.90;;;;;;5024720;28;20110;-88
2023/07/21 06:43:07;;;;;;;10.57;2.42;;;17.40;99.90;;;;;;5041876;28;20460;-89
2023/07/21 06:45:33;;;;;;;11.73;2.60;;;17.50;99.90;;;;;;5004801;28;20287;-90
2023/07/21 06:48:00;;;;;;;10.00;2.70;;;17.60;99.90;;;;;;5019211;28;20041;-91
2023/07/21 06:50:25;;;;;;;8.35;2.75;;;17.70;99.90;;;;;;5026451;28;20037;-90
2023/07/21 06:52:51;;;;;;;7.70;2.30;;;17.70;99.90;;;;;;5011053;28;20508;-90
2023/07/21 06:55:17;;;;;;;6.30;2.20;;;17.80;99.90;;;;;;5012217;28;20040;-91
2023/07/21 06:57:43;;;;;;;6.72;2.15;;;17.90;99.90;;;;;;5005841;28;20044;-91
2023/07/21 07:00:12;;;;;;;6.13;2.22;;;18.00;99.90;;;;;;5007510;28;20857;-90
2023/07/21 07:02:39;;;;;;;6.57;2.00;;;18.10;99.90;;;;;;5009488;28;20437;-90
2023/07/21 07:05:05;;;;;;;6.95;2.30;;;18.20;99.90;;;;;;5005163;28;20037;-92
2023/07/21 07:07:30;;;;;;;6.10;2.10;;;18.30;99.90;;;;;;5023643;28;20102;-90
2023/07/21 07:09:57;;;;;;;8.25;2.40;;;18.40;99.90;;;;;;5008017;28;20039;-89
2023/07/21 07:12:23;;;;;;;10.45;2.45;;;18.50;99.90;;;;;;5024312;28;20482;-91
2023/07/21 07:14:48;;;;;;;7.15;1.90;;;18.60;99.90;;;;;;5023064;28;20037;-90
2023/07/21 07:17:14;;;;;;;8.18;2.05;;;18.70;99.90;;;;;;5027498;28;20037;-90
2023/07/21 07:19:40;;;;;;;6.22;1.95;;;18.80;99.90;;;;;;5025852;28;20041;-91
2023/07/21 07:22:08;;;;;;;7.47;2.33;;;18.90;99.90;;;;;;5011284;28;20048;-90
2023/07/21 07:24:35;;;;;;;6.03;2.03;;;19.00;99.90;;;;;;5013666;28;20048;-90
2023/07/21 07:27:01;;;;;;;5.15;1.80;;;19.10;99.90;;;;;;4995667;28;20041;-92
2023/07/21 07:29:27;;;;;;;6.50;1.95;;;19.20;99.90;;;;;;4992180;28;20049;-90
2023/07/21 07:31:53;;;;;;;4.93;1.70;;;19.20;99.90;;;;;;5004912;28;20475;-92
2023/07/21 07:34:19;;;;;;;6.43;1.85;;;19.20;99.90;;;;;;4992754;28;20037;-91
2023/07/21 07:36:45;;;;;;;3.80;1.50;;;19.30;99.90;;;;;;5033299;28;20067;-92
2023/07/21 07:39:12;;;;;;;4.80;1.60;;;19.30;99.90;;;;;;5010149;28;20037;-90
2023/07/21 07:41:40;;;;;;;6.43;1.63;;;19.60;99.90;;;;;;5026219;28;20046;-91
2023/07/21 07:44:08;;;;;;;4.38;1.55;;;19.60;99.90;;;;;;5010310;28;20045;-93
2023/07/21 07:46:35;;;;;;;4.38;1.50;;;19.70;99.90;;;;;;5001913;28;20040;-92
2023/07/21 07:49:01;;;;;;;3.85;1.52;;;19.70;99.90;;;;;;5004159;28;20044;-90
2023/07/21 07:51:27;;;;;;;5.60;1.73;;;19.70;99.90;;;;;;5026440;28;20041;-89
2023/07/21 07:53:53;;;;;;;4.55;1.73;;;19.60;99.90;;;;;;5004266;28;20045;-90
2023/07/21 07:56:21;;;;;;;3.88;1.60;;;19.50;99.90;;;;;;4995242;28;20524;-89
2023/07/21 07:58:47;;;;;;;5.35;1.70;;;19.60;99.90;;;;;;5026524;28;20041;-91
2023/07/21 08:01:13;;;;;;;4.72;1.67;;;19.50;99.90;;;;;;5042129;28;20082;-93
2023/07/21 08:03:43;;;;;;;2.85;1.40;;;19.50;99.90;;;;;;5010123;28;20057;-90
2023/07/21 08:06:10;;;;;;;4.95;1.80;;;19.60;99.90;;;;;;5005864;28;20155;-90
2023/07/21 08:08:36;;;;;;;6.03;1.60;;;19.70;99.90;;;;;;5021544;28;20823;-90
2023/07/21 08:11:03;;;;;;;2.88;1.40;;;19.90;99.90;;;;;;5008224;28;20052;-92
2023/07/21 08:13:28;;;;;;;5.43;1.50;;;20.00;99.90;;;;;;5021316;28;20095;-90
2023/07/21 08:15:54;;;;;;;3.95;1.50;;;20.10;99.90;;;;;;5022067;28;20445;-92
2023/07/21 08:18:20;;;;;;;2.78;1.40;;;20.20;99.90;;;;;;4998289;28;20033;-92
2023/07/21 08:20:49;;;;;;;3.78;1.60;;;20.40;99.90;;;;;;4992526;28;20045;-91
2023/07/21 08:23:14;;;;;;;4.88;1.70;;;20.50;99.90;;;;;;5019396;28;20037;-89
2023/07/21 08:25:41;;;;;;;3.95;1.45;;;20.60;99.90;;;;;;5042192;28;20068;-94
2023/07/21 08:28:07;;;;;;;4.25;1.60;;;20.60;99.90;;;;;;5027440;28;20044;-90
2023/07/21 08:30:34;;;;;;;4.43;1.52;;;20.70;99.90;;;;;;5026757;28;20038;-93
2023/07/21 08:33:03;;;;;;;6.65;1.70;;;20.80;99.90;;;;;;5040560;28;20056;-95
2023/07/21 08:35:29;;;;;;;4.93;1.50;;;20.80;99.90;;;;;;5027558;28;20064;-90
2023/07/21 08:37:56;;;;;;;5.18;1.67;;;20.90;99.90;;;;;;5008849;28;20038;-90
2023/07/21 08:40:24;;;;;;;4.95;1.80;;;20.90;99.90;;;;;;5006743;28;20541;-90
2023/07/21 08:42:51;;;;;;;4.38;1.63;;;21.00;99.90;;;;;;5018460;28;20413;-91
2023/07/21 08:45:19;;;;;;;3.38;1.48;;;21.30;99.90;;;;;;5014373;28;20037;-93
2023/07/21 08:47:48;;;;;;;5.05;1.55;;;21.20;99.90;;;;;;5019572;28;20418;-91
2023/07/21 08:50:18;;;;;;;3.78;1.48;;;21.20;99.90;;;;;;5011123;28;20029;-94
2023/07/21 08:52:44;;;;;;;4.80;1.50;;;21.20;99.90;;;;;;5014766;28;20057;-92
2023/07/21 08:55:09;;;;;;;4.38;1.50;;;21.40;99.90;;;;;;5022580;28;20048;-91
2023/07/21 08:57:35;;;;;;;5.03;1.60;;;21.20;99.90;;;;;;4993534;28;20129;-90
2023/07/21 09:00:03;;;;;;;3.38;1.50;;;20.80;99.90;;;;;;5028294;28;20048;-90
2023/07/21 09:02:45;;;;;;;4.65;1.40;;;20.70;99.90;;;;;;5022909;28;20526;-92
2023/07/21 09:05:16;;;;;;;3.65;1.35;;;20.80;99.90;;;;;;5040417;28;20505;-89
2023/07/21 09:07:44;;;;;;;4.95;1.40;;;20.80;99.90;;;;;;5030588;28;20087;-93
2023/07/21 09:10:10;;;;;;;2.80;1.40;;;21.10;99.90;;;;;;5034051;28;20041;-93
2023/07/21 09:12:40;;;;;;;4.72;1.27;;;21.40;99.90;;;;;;5028825;28;20047;-96
2023/07/21 09:15:19;;;;;;;2.55;1.27;;;21.50;99.90;;;;;;5021955;28;20579;-90
2023/07/21 09:17:45;;;;;;;3.17;1.40;;;21.70;99.90;;;;;;5008025;22;20049;-81
2023/07/21 09:20:11;;;;;;;3.63;1.27;;;21.70;99.90;;;;;;4996452;28;20072;-82
2023/07/21 09:22:39;;;;;;;3.30;1.48;;;21.80;99.90;;;;;;5004062;28;20033;-81
2023/07/21 09:25:05;;;;;;;3.67;1.50;;;21.80;99.90;;;;;;5009317;28;20394;-80
2023/07/21 09:27:33;;;;;;;4.82;1.58;;;21.70;99.90;;;;;;5007967;28;20746;-81
2023/07/21 09:30:00;;;;;;;3.50;1.45;;;21.50;99.90;;;;;;5005976;28;20041;-81
2023/07/21 09:32:27;;;;;;;5.72;1.67;;;21.50;99.90;;;;;;4977385;28;20037;-81
2023/07/21 09:35:01;;;;;;;5.13;1.55;;;21.50;99.90;;;;;;5010109;28;20124;-80
2023/07/21 09:37:29;;;;;;;6.38;1.70;;;21.50;99.90;;;;;;4994276;28;20108;-81
2023/07/21 09:40:01;;;;;;;4.25;1.50;;;21.60;99.90;;;;;;5006301;28;20120;-81
2023/07/21 09:42:28;;;;;;;3.78;1.58;;;21.70;99.90;;;;;;5004263;28;20388;-81
2023/07/21 09:44:55;;;;;;;4.20;1.70;;;21.60;99.90;;;;;;4974244;28;20029;-81
2023/07/21 09:47:22;;;;;;;6.28;2.13;;;21.60;99.90;;;;;;4969466;28;20505;-81
2023/07/21 09:49:49;;;;;;;5.65;1.70;;;21.70;99.90;;;;;;5002081;28;20124;-80
2023/07/21 09:52:17;;;;;;;5.28;1.73;;;21.70;99.90;;;;;;4988909;28;20042;-79
2023/07/21 09:55:04;;;;;;;3.95;1.60;;;21.70;99.90;;;;;;5007372;28;20052;-80
2023/07/21 09:57:36;;;;;;;4.05;1.50;;;21.70;99.90;;;;;;4957203;28;20057;-79
2023/07/21 10:00:07;;;;;;;6.68;1.90;;;21.80;99.90;;;;;;4953532;28;20034;-80
2023/07/21 10:02:34;;;;;;;5.72;2.03;;;21.80;99.90;;;;;;4937617;28;20073;-79
2023/07/21 10:05:04;;;;;;;5.63;1.85;;;21.90;99.90;;;;;;4987102;28;20092;-79
2023/07/21 10:07:33;;;;;;;5.00;1.70;;;22.20;99.90;;;;;;4984398;28;20042;-79
2023/07/21 10:09:59;;;;;;;5.72;2.00;;;22.50;99.90;;;;;;4991447;28;20038;-82
2023/07/21 10:12:46;;;;;;;7.15;1.90;;;22.50;99.90;;;;;;4979208;28;20069;-82
2023/07/21 10:15:21;;;;;;;5.75;1.70;;;22.30;99.90;;;;;;4991459;28;20045;-82
2023/07/21 10:17:57;;;;;;;5.97;1.95;;;22.10;99.90;;;;;;4975651;28;20061;-82
2023/07/21 10:20:50;;;;;;;5.72;1.83;;;21.90;99.90;;;;;;4972692;28;20044;-83
2023/07/21 10:23:38;;;;;;;3.92;1.60;;;21.70;99.90;;;;;;4979993;28;20066;-81
2023/07/21 10:26:05;;;;;;;5.90;2.10;;;21.80;99.90;;;;;;4989852;28;20058;-80
2023/07/21 10:28:37;;;;;;;6.20;2.00;;;21.90;99.90;;;;;;4990868;28;20046;-80
2023/07/21 10:31:24;;;;;;;6.07;2.00;;;22.10;99.90;;;;;;4988082;28;20066;-79
2023/07/21 10:34:14;;;;;;;5.55;1.90;;;22.20;99.90;;;;;;4972029;28;20525;-80
2023/07/21 10:36:47;;;;;;;4.68;1.65;;;22.50;99.90;;;;;;4984544;28;20038;-80
2023/07/21 10:39:16;;;;;;;;;;;22.50;99.90;;;;;;4986310;28;20042;-80
2023/07/21 10:41:42;;;;;;;4.53;1.63;;;22.40;99.90;;;;;;4973969;28;19936;-80
2023/07/21 10:44:09;;;;;;;6.15;1.90;;;22.40;99.90;;;;;;4972917;28;20046;-80
2023/07/21 10:46:40;;;;;;;4.05;1.63;;;22.20;99.90;;;;;;4975007;28;20077;-80
2023/07/21 10:49:09;;;;;;;4.53;1.60;;;22.10;99.90;;;;;;4989522;28;20571;-80
2023/07/21 10:51:35;;;;;;;4.10;1.67;;;22.00;99.90;;;;;;4975434;28;20093;-80
2023/07/21 10:54:00;;;;;;;4.55;1.60;;;21.80;99.90;;;;;;4981590;28;20050;-79
2023/07/21 10:56:27;;;;;;;6.75;1.70;;;21.80;99.90;;;;;;4968558;28;20037;-79
2023/07/21 10:58:53;;;;;;;3.75;1.50;;;21.80;99.90;;;;;;4987757;28;20130;-79
2023/07/21 11:01:22;;;;;;;3.58;1.50;;;21.80;99.90;;;;;;4956075;28;20046;-80
2023/07/21 11:03:48;;;;;;;4.30;1.70;;;21.90;99.90;;;;;;4972745;28;20062;-81
2023/07/21 11:06:14;;;;;;;5.57;1.88;;;21.90;99.90;;;;;;4980333;28;20372;-80
2023/07/21 11:08:40;;;;;;;3.92;1.60;;;22.00;99.90;;;;;;4965211;28;20037;-79
2023/07/21 11:11:08;;;;;;;5.93;1.98;;;22.00;99.90;;;;;;4988300;28;20037;-79
2023/07/21 11:13:34;;;;;;;4.95;1.63;;;22.00;99.90;;;;;;4973959;28;20034;-79
2023/07/21 11:16:00;;;;;;;4.22;1.52;;;21.90;99.90;;;;;;4957786;28;20034;-79
2023/07/21 11:18:29;;;;;;;4.88;1.80;;;21.90;99.90;;;;;;4957248;28;20121;-79
2023/07/21 11:20:55;;;;;;;5.07;1.77;;;21.90;99.90;;;;;;4989033;28;20038;-79
2023/07/21 11:23:22;;;;;;;7.00;2.10;;;21.80;99.90;;;;;;4971589;28;20133;-79
2023/07/21 11:26:10;;;;;;;7.03;2.00;;;21.90;99.90;;;;;;4985706;28;20120;-79
2023/07/21 11:28:39;;;;;;;4.07;1.60;;;22.10;99.90;;;;;;4969640;28;20041;-79
2023/07/21 11:31:15;;;;;;;7.45;2.35;;;22.20;99.90;;;;;;4982359;28;20041;-79
2023/07/21 11:33:42;;;;;;;6.38;1.90;;;22.40;99.90;;;;;;4971664;28;20046;-79
2023/07/21 11:36:15;;;;;;;5.57;1.90;;;22.50;99.90;;;;;;4952304;28;20212;-79
2023/07/21 11:38:42;;;;;;;4.80;1.70;;;22.60;99.90;;;;;;4972158;28;20038;-79
2023/07/21 11:41:08;;;;;;;6.95;2.03;;;22.80;99.90;;;;;;4972817;28;20030;-79
2023/07/21 11:43:49;;;;;;;4.78;1.77;;;22.80;99.90;;;;;;4984922;28;20705;-79
2023/07/21 11:46:23;;;;;;;6.70;2.00;;;22.90;99.90;;;;;;4985584;28;20044;-79
2023/07/21 11:48:51;;;;;;;5.78;1.90;;;23.00;99.90;;;;;;4989204;28;20049;-78
2023/07/21 11:51:17;;;;;;;7.43;2.00;;;22.90;99.90;;;;;;4989436;28;20069;-78
2023/07/21 11:53:48;;;;;;;5.70;2.00;;;23.10;99.90;;;;;;4970147;28;20089;-78
2023/07/21 11:56:15;;;;;;;5.65;2.00;;;23.10;99.90;;;;;;4971041;28;20100;-79
2023/07/21 11:58:43;;;;;;;4.90;1.70;;;23.10;99.90;;;;;;4985991;28;20219;-79
2023/07/21 12:01:09;;;;;;;5.57;1.83;;;23.00;99.90;;;;;;5002256;28;20091;-79
2023/07/21 12:03:36;;;;;;;5.32;1.90;;;22.90;99.90;;;;;;4985671;28;20403;-79
2023/07/21 12:06:03;;;;;;;5.97;2.08;;;22.80;99.90;;;;;;4969428;28;20179;-79
2023/07/21 12:08:30;;;;;;;5.45;2.10;;;22.60;99.90;;;;;;4971741;28;20488;-79
2023/07/21 12:10:57;;;;;;;5.47;1.90;;;22.50;99.90;;;;;;4985773;28;20057;-79
2023/07/21 12:13:24;;;;;;;5.25;1.83;;;22.50;99.90;;;;;;4986384;28;20056;-79
2023/07/21 12:15:50;;;;;;;5.75;1.90;;;22.40;99.90;;;;;;4971980;28;20114;-81
2023/07/21 12:18:17;;;;;;;6.38;1.80;;;22.30;99.90;;;;;;4984209;28;20483;-82
2023/07/21 12:20:43;;;;;;;5.30;1.90;;;22.20;99.90;;;;;;4984952;28;20102;-79
2023/07/21 12:23:08;;;;;;;7.03;2.10;;;22.20;99.90;;;;;;4951981;28;20050;-78
2023/07/21 12:25:34;;;;;;;9.40;2.60;;;22.10;99.90;;;;;;4967304;28;20364;-81
2023/07/21 12:28:00;;;;;;;8.73;2.45;;;21.60;99.90;;;;;;4984059;28;20046;-80
2023/07/21 12:30:27;;;;;;;7.88;2.45;;;21.00;99.90;;;;;;4985002;28;20039;-81
2023/07/21 12:32:54;;;;;;;8.50;2.33;;;20.50;99.90;;;;;;4985443;28;20158;-81
2023/07/21 12:35:19;;;;;;;8.63;2.30;;;20.30;99.90;;;;;;4987153;28;20062;-80
2023/07/21 12:37:45;;;;;;;7.82;2.38;;;19.90;99.90;;;;;;4987553;28;20062;-80
2023/07/21 12:40:15;;;;;;;8.68;2.25;;;19.70;99.90;;;;;;4956241;28;20065;-80
2023/07/21 12:42:41;;;;;;;6.55;2.35;;;19.40;99.90;;;;;;4986995;28;20104;-82
2023/07/21 12:45:08;;;;;;;8.57;2.80;;;19.20;99.90;;;;;;4987212;28;20046;-83
2023/07/21 12:47:37;;;;;;;8.25;2.58;;;18.90;99.90;;;;;;4971960;28;20050;-82